createdAt,value
2022-10-17T00:01:32.866Z,100.00
2022-10-17T00:03:59.512Z,100.00
2022-10-17T00:06:26.149Z,100.00
2022-10-17T00:08:52.844Z,100.00
2022-10-17T00:11:22.815Z,100.00
2022-10-17T00:13:50.158Z,100.00
2022-10-17T00:16:34.555Z,100.00
2022-10-17T00:19:01.226Z,100.00
2022-10-17T00:21:29.421Z,100.00
2022-10-17T00:23:56.249Z,100.00
2022-10-17T00:26:23.453Z,100.00
2022-10-17T00:28:51.654Z,100.00
2022-10-17T00:31:20.284Z,100.00
2022-10-17T00:33:47.642Z,100.00
2022-10-17T00:36:21.035Z,100.00
2022-10-17T00:38:50.434Z,100.00
2022-10-17T00:41:19.524Z,100.00
2022-10-17T00:43:58.209Z,100.00
2022-10-17T00:46:30.904Z,100.00
2022-10-17T00:49:00.790Z,100.00
2022-10-17T00:51:47.513Z,100.00
2022-10-17T00:54:17.543Z,100.00
2022-10-17T00:56:46.807Z,100.00
2022-10-17T00:59:16.184Z,100.00
2022-10-17T01:01:51.688Z,100.00
2022-10-17T01:04:19.503Z,100.00
2022-10-17T01:06:46.097Z,100.00
2022-10-17T01:09:12.807Z,100.00
2022-10-17T01:11:50.872Z,100.00
2022-10-17T01:14:17.453Z,100.00
2022-10-17T01:17:20.249Z,100.00
2022-10-17T01:20:11.775Z,100.00
2022-10-17T01:23:09.602Z,100.00
2022-10-17T01:25:44.888Z,100.00
2022-10-17T01:28:49.939Z,100.00
2022-10-17T01:31:23.070Z,100.00
2022-10-17T01:34:14.618Z,100.00
2022-10-17T01:37:04.443Z,100.00
2022-10-17T01:40:00.350Z,100.00
2022-10-17T01:42:31.589Z,100.00
2022-10-17T01:45:06.787Z,100.00
2022-10-17T01:47:34.694Z,100.00
2022-10-17T01:50:07.808Z,100.00
2022-10-17T01:52:40.074Z,100.00
2022-10-17T01:55:12.650Z,100.00
2022-10-17T01:57:44.027Z,100.00
2022-10-17T02:00:17.027Z,100.00
2022-10-17T02:02:46.661Z,100.00
2022-10-17T02:05:13.251Z,100.00
2022-10-17T02:07:41.930Z,100.00
2022-10-17T02:10:31.931Z,100.00
2022-10-17T02:13:18.621Z,100.00
2022-10-17T02:15:57.500Z,100.00
2022-10-17T02:18:50.405Z,100.00
2022-10-17T02:21:38.116Z,100.00
2022-10-17T02:24:19.253Z,100.00
2022-10-17T02:26:59.016Z,100.00
2022-10-17T02:29:35.415Z,100.00
2022-10-17T02:34:50.468Z,100.00
2022-10-17T02:37:22.511Z,100.00
2022-10-17T02:39:50.850Z,100.00
2022-10-17T02:42:18.839Z,100.00
2022-10-17T02:44:46.415Z,100.00
2022-10-17T02:47:36.684Z,100.00
2022-10-17T02:50:04.249Z,100.00
2022-10-17T02:52:43.456Z,100.00
2022-10-17T02:55:16.670Z,100.00
2022-10-17T02:57:51.353Z,100.00
2022-10-17T03:00:19.136Z,100.00
2022-10-17T03:02:48.938Z,100.00
2022-10-17T03:05:20.875Z,100.00
2022-10-17T03:07:47.598Z,100.00
2022-10-17T03:10:14.341Z,100.00
2022-10-17T03:12:40.951Z,100.00
2022-10-17T03:15:07.977Z,100.00
2022-10-17T03:17:35.447Z,100.00
2022-10-17T03:20:02.332Z,100.00
2022-10-17T03:22:29.027Z,100.00
2022-10-17T03:24:55.791Z,100.00
2022-10-17T03:27:22.617Z,100.00
2022-10-17T03:29:49.309Z,100.00
2022-10-17T03:32:15.968Z,100.00
2022-10-17T03:34:42.588Z,100.00
2022-10-17T03:37:09.176Z,100.00
2022-10-17T03:39:35.766Z,100.00
2022-10-17T03:42:02.424Z,100.00
2022-10-17T03:44:29.025Z,100.00
2022-10-17T03:46:55.609Z,100.00
2022-10-17T03:49:22.246Z,100.00
2022-10-17T03:51:48.857Z,100.00
2022-10-17T03:54:15.447Z,100.00
2022-10-17T03:56:43.427Z,100.00
2022-10-17T03:59:14.985Z,100.00
2022-10-17T04:01:42.104Z,100.00
2022-10-17T04:04:09.431Z,100.00
2022-10-17T04:06:36.611Z,100.00
2022-10-17T04:09:04.729Z,100.00
2022-10-17T04:11:31.372Z,100.00
2022-10-17T04:13:59.683Z,100.00
2022-10-17T04:16:26.815Z,100.00
2022-10-17T04:18:58.350Z,100.00
2022-10-17T04:21:28.928Z,100.00
2022-10-17T04:23:57.567Z,100.00
2022-10-17T04:26:24.596Z,100.00
2022-10-17T04:28:51.520Z,100.00
2022-10-17T04:31:18.869Z,100.00
2022-10-17T04:33:50.155Z,100.00
2022-10-17T04:36:19.483Z,100.00
2022-10-17T04:38:46.781Z,100.00
2022-10-17T04:41:15.955Z,100.00
2022-10-17T04:43:45.584Z,100.00
2022-10-17T04:46:15.670Z,100.00
2022-10-17T04:48:42.613Z,100.00
2022-10-17T04:51:12.951Z,100.00
2022-10-17T04:53:40.779Z,100.00
2022-10-17T04:56:13.308Z,100.00
2022-10-17T04:58:40.987Z,100.00
2022-10-17T05:01:09.527Z,100.00
2022-10-17T05:03:36.400Z,100.00
2022-10-17T05:06:08.110Z,100.00
2022-10-17T05:08:35.716Z,100.00
2022-10-17T05:11:03.026Z,100.00
2022-10-17T05:13:29.765Z,100.00
2022-10-17T05:16:02.260Z,100.00
2022-10-17T05:18:29.374Z,100.00
2022-10-17T05:20:56.231Z,100.00
2022-10-17T05:23:23.195Z,100.00
2022-10-17T05:25:55.018Z,100.00
2022-10-17T05:28:22.382Z,100.00
2022-10-17T05:30:49.124Z,100.00
2022-10-17T05:33:16.025Z,100.00
2022-10-17T05:35:42.752Z,100.00
2022-10-17T05:38:09.339Z,100.00
2022-10-17T05:40:36.029Z,100.00
2022-10-17T05:43:02.623Z,100.00
2022-10-17T05:45:29.239Z,100.00
2022-10-17T05:47:55.852Z,100.00
2022-10-17T05:50:24.097Z,100.00
2022-10-17T05:52:54.175Z,100.00
2022-10-17T05:55:20.979Z,100.00
2022-10-17T05:57:47.599Z,100.00
2022-10-17T06:00:14.744Z,100.00
2022-10-17T06:02:41.957Z,100.00
2022-10-17T06:05:08.841Z,100.00
2022-10-17T06:07:35.979Z,100.00
2022-10-17T06:10:02.666Z,100.00
2022-10-17T06:12:29.498Z,100.00
2022-10-17T06:14:56.281Z,100.00
2022-10-17T06:17:23.073Z,100.00
2022-10-17T06:19:49.675Z,100.00
2022-10-17T06:22:16.504Z,100.00
2022-10-17T06:24:43.172Z,100.00
2022-10-17T06:27:11.946Z,100.00
2022-10-17T06:29:39.108Z,100.00
2022-10-17T06:32:07.730Z,100.00
2022-10-17T06:34:36.577Z,100.00
2022-10-17T06:37:03.284Z,100.00
2022-10-17T06:39:34.046Z,100.00
2022-10-17T06:42:01.697Z,98.64
2022-10-17T06:44:32.006Z,98.26
2022-10-17T06:47:00.019Z,94.70
2022-10-17T06:49:27.533Z,93.20
2022-10-17T06:51:54.836Z,92.47
2022-10-17T06:54:21.544Z,91.19
2022-10-17T06:56:48.166Z,90.81
2022-10-17T06:59:15.755Z,91.09
2022-10-17T07:01:46.047Z,90.37
2022-10-17T07:04:14.460Z,86.85
2022-10-17T07:06:41.399Z,87.22
2022-10-17T07:09:08.201Z,87.12
2022-10-17T07:11:35.239Z,86.03
2022-10-17T07:14:02.197Z,85.64
2022-10-17T07:16:29.033Z,84.98
2022-10-17T07:18:56.166Z,85.31
2022-10-17T07:21:22.807Z,85.48
2022-10-17T07:23:49.715Z,85.29
2022-10-17T07:26:17.568Z,84.81
2022-10-17T07:28:45.884Z,83.45
2022-10-17T07:31:16.065Z,83.46
2022-10-17T07:33:43.771Z,82.77
2022-10-17T07:36:11.209Z,82.32
2022-10-17T07:38:37.979Z,80.64
2022-10-17T07:41:06.994Z,81.96
2022-10-17T07:43:34.421Z,80.01
2022-10-17T07:46:02.348Z,78.54
2022-10-17T07:48:29.402Z,78.22
2022-10-17T07:50:56.032Z,77.13
2022-10-17T07:53:22.659Z,76.71
2022-10-17T07:55:49.829Z,77.16
2022-10-17T07:58:16.700Z,75.35
2022-10-17T08:00:43.565Z,76.23
2022-10-17T08:03:11.077Z,75.59
2022-10-17T08:05:37.702Z,74.38
2022-10-17T08:08:04.490Z,74.01
2022-10-17T08:10:31.174Z,71.98
2022-10-17T08:12:58.711Z,71.05
2022-10-17T08:15:29.403Z,69.89
2022-10-17T08:17:59.449Z,70.13
2022-10-17T08:20:26.243Z,70.08
2022-10-17T08:22:54.350Z,68.85
2022-10-17T08:25:21.695Z,69.02
2022-10-17T08:27:48.831Z,67.72
2022-10-17T08:30:15.962Z,67.31
2022-10-17T08:32:42.831Z,66.61
2022-10-17T08:35:09.808Z,66.69
2022-10-17T08:37:36.591Z,65.89
2022-10-17T08:40:03.972Z,65.69
2022-10-17T08:42:45.831Z,65.09
2022-10-17T08:45:29.745Z,63.74
2022-10-17T08:47:59.897Z,63.41
2022-10-17T08:50:47.943Z,63.97
2022-10-17T08:53:58.739Z,62.73
2022-10-17T08:56:49.544Z,61.01
2022-10-17T08:59:36.688Z,59.93
2022-10-17T09:02:14.287Z,59.88
2022-10-17T09:05:24.046Z,59.38
2022-10-17T09:08:20.089Z,60.12
2022-10-17T09:11:02.531Z,56.54
2022-10-17T09:13:49.298Z,56.46
2022-10-17T09:16:24.981Z,55.20
2022-10-17T09:19:02.988Z,55.52
2022-10-17T09:21:42.911Z,56.15
2022-10-17T09:24:20.722Z,55.44
2022-10-17T09:26:47.345Z,55.59
2022-10-17T09:29:28.625Z,54.11
2022-10-17T09:32:17.351Z,53.44
2022-10-17T09:34:44.181Z,51.77
2022-10-17T09:37:14.474Z,52.29
2022-10-17T09:39:42.312Z,52.33
2022-10-17T09:42:13.884Z,51.34
2022-10-17T09:44:45.494Z,51.82
2022-10-17T09:47:27.298Z,50.75
2022-10-17T09:49:54.224Z,51.42
2022-10-17T09:52:29.474Z,50.88
2022-10-17T09:55:15.723Z,51.12
2022-10-17T09:57:59.038Z,49.73
2022-10-17T10:00:34.580Z,49.27
2022-10-17T10:03:21.815Z,48.04
2022-10-17T10:06:06.767Z,49.11
2022-10-17T10:08:49.665Z,49.10
2022-10-17T10:11:17.769Z,49.04
2022-10-17T10:13:46.345Z,47.18
2022-10-17T10:16:16.167Z,48.38
2022-10-17T10:18:45.422Z,48.63
2022-10-17T10:21:15.346Z,47.92
2022-10-17T10:23:44.196Z,48.02
2022-10-17T10:26:23.976Z,47.49
2022-10-17T10:28:54.804Z,48.15
2022-10-17T10:31:31.499Z,48.27
2022-10-17T10:34:01.309Z,47.17
2022-10-17T10:36:44.510Z,46.63
2022-10-17T10:39:36.869Z,46.70
2022-10-17T10:42:07.500Z,47.47
2022-10-17T10:44:36.769Z,47.25
2022-10-17T10:47:17.286Z,47.26
2022-10-17T10:49:44.666Z,46.63
2022-10-17T10:52:43.308Z,46.65
2022-10-17T10:55:24.959Z,46.43
2022-10-17T10:57:55.989Z,46.80
2022-10-17T11:00:27.583Z,46.67
2022-10-17T11:02:54.272Z,46.10
2022-10-17T11:05:35.727Z,44.59
2022-10-17T11:08:36.206Z,45.12
2022-10-17T11:11:18.150Z,45.33
2022-10-17T11:13:53.377Z,45.42
2022-10-17T11:16:29.899Z,44.63
2022-10-17T11:18:59.509Z,44.35
2022-10-17T11:21:44.072Z,43.84
2022-10-17T11:24:24.805Z,43.39
2022-10-17T11:27:06.398Z,44.17
2022-10-17T11:29:39.494Z,43.63
2022-10-17T11:32:13.858Z,43.24
2022-10-17T11:34:46.031Z,43.48
2022-10-17T11:37:19.000Z,44.70
2022-10-17T11:39:52.057Z,43.60
2022-10-17T11:42:27.535Z,43.27
2022-10-17T11:45:03.227Z,42.97
2022-10-17T11:47:47.156Z,43.06
2022-10-17T11:53:14.956Z,43.13
2022-10-17T11:55:43.549Z,42.86
2022-10-17T11:58:30.717Z,42.84
2022-10-17T12:01:03.395Z,42.44
2022-10-17T12:04:04.147Z,43.02
2022-10-17T12:07:06.067Z,42.76
2022-10-17T12:09:46.092Z,43.05
2022-10-17T12:12:27.082Z,43.40
2022-10-17T12:14:54.470Z,42.67
2022-10-17T12:17:33.086Z,43.46
2022-10-17T12:20:24.890Z,43.32
2022-10-17T12:22:51.495Z,43.59
2022-10-17T12:25:31.602Z,44.39
2022-10-17T12:28:07.609Z,44.82
2022-10-17T12:30:35.040Z,44.53
2022-10-17T12:33:25.720Z,44.94
2022-10-17T12:36:27.090Z,45.36
2022-10-17T12:38:56.615Z,45.54
2022-10-17T12:41:38.533Z,45.75
2022-10-17T12:44:14.643Z,44.90
2022-10-17T12:46:51.245Z,45.10
2022-10-17T12:49:38.090Z,45.73
2022-10-17T12:52:06.484Z,45.00
2022-10-17T12:54:47.686Z,44.76
2022-10-17T12:57:43.272Z,45.02
2022-10-17T13:00:15.936Z,45.13
2022-10-17T13:02:43.044Z,45.05
2022-10-17T13:05:16.760Z,45.07
2022-10-17T13:07:47.239Z,45.89
2022-10-17T13:10:23.901Z,45.23
2022-10-17T13:12:53.876Z,45.81
2022-10-17T13:15:21.138Z,45.94
2022-10-17T13:17:56.138Z,45.63
2022-10-17T13:20:29.060Z,46.64
2022-10-17T13:22:58.828Z,46.13
2022-10-17T13:25:27.545Z,45.94
2022-10-17T13:28:12.011Z,46.30
2022-10-17T13:30:38.709Z,47.13
2022-10-17T13:33:27.812Z,46.21
2022-10-17T13:36:01.671Z,46.28
2022-10-17T13:38:32.600Z,47.38
2022-10-17T13:41:30.138Z,47.26
2022-10-17T13:43:48.003Z,47.22
2022-10-17T13:46:38.045Z,46.86
2022-10-17T13:49:23.304Z,47.36
2022-10-17T13:51:54.296Z,47.85
2022-10-17T13:54:40.631Z,48.29
2022-10-17T13:57:19.837Z,48.77
2022-10-17T13:59:50.132Z,49.14
2022-10-17T14:02:23.076Z,48.98
2022-10-17T14:05:17.792Z,49.20
2022-10-17T14:10:42.530Z,49.56
2022-10-17T14:13:22.358Z,49.28
2022-10-17T14:15:49.468Z,49.24
2022-10-17T14:18:24.164Z,49.31
2022-10-17T14:23:44.785Z,50.52
2022-10-17T14:26:16.990Z,50.57
2022-10-17T14:28:47.132Z,50.38
2022-10-17T14:31:29.473Z,50.83
2022-10-17T14:33:56.717Z,51.65
2022-10-17T14:36:42.739Z,51.66
2022-10-17T14:39:20.443Z,52.16
2022-10-17T14:41:48.032Z,52.09
2022-10-17T14:44:21.697Z,51.98
2022-10-17T14:46:52.904Z,51.50
2022-10-17T14:49:40.882Z,51.92
2022-10-17T14:52:18.391Z,53.27
2022-10-17T14:54:49.692Z,53.38
2022-10-17T14:57:31.712Z,53.60
2022-10-17T14:59:58.937Z,53.78
2022-10-17T15:02:29.536Z,54.81
2022-10-17T15:04:56.652Z,55.17
2022-10-17T15:07:24.099Z,55.56
2022-10-17T15:09:53.234Z,55.66
2022-10-17T15:12:23.602Z,55.98
2022-10-17T15:14:51.632Z,56.52
2022-10-17T15:17:27.066Z,56.67
2022-10-17T15:19:53.875Z,57.84
2022-10-17T15:22:20.626Z,57.95
2022-10-17T15:24:47.668Z,58.91
2022-10-17T15:27:23.482Z,59.17
2022-10-17T15:29:51.743Z,60.35
2022-10-17T15:32:18.794Z,61.11
2022-10-17T15:34:45.533Z,62.22
2022-10-17T15:37:24.440Z,63.13
2022-10-17T15:39:55.278Z,63.96
2022-10-17T15:42:23.699Z,65.01
2022-10-17T15:44:50.533Z,65.84
2022-10-17T15:47:26.088Z,66.97
2022-10-17T15:49:54.261Z,67.69
2022-10-17T15:52:22.072Z,69.15
2022-10-17T15:54:48.739Z,70.19
2022-10-17T15:57:24.724Z,70.94
2022-10-17T15:59:52.406Z,71.50
2022-10-17T16:02:20.547Z,72.26
2022-10-17T16:04:48.833Z,72.74
2022-10-17T16:07:15.565Z,73.67
2022-10-17T16:09:42.150Z,74.53
2022-10-17T16:12:26.625Z,77.58
2022-10-17T16:14:53.273Z,78.93
2022-10-17T16:17:20.109Z,79.28
2022-10-17T16:19:46.760Z,79.78
2022-10-17T16:22:32.713Z,79.76
2022-10-17T16:25:07.641Z,80.40
2022-10-17T16:27:34.296Z,81.06
2022-10-17T16:30:01.005Z,81.85
2022-10-17T16:32:27.785Z,82.48
2022-10-17T16:34:54.472Z,83.40
2022-10-17T16:37:21.090Z,83.90
2022-10-17T16:39:52.444Z,84.29
2022-10-17T16:42:20.683Z,84.95
2022-10-17T16:44:48.512Z,85.99
2022-10-17T16:47:15.508Z,86.69
2022-10-17T16:49:45.183Z,87.98
2022-10-17T16:52:12.820Z,88.29
2022-10-17T16:54:39.489Z,89.20
2022-10-17T16:57:06.128Z,90.24
2022-10-17T16:59:32.768Z,90.28
2022-10-17T17:01:59.496Z,90.88
2022-10-17T17:04:26.255Z,92.20
2022-10-17T17:06:52.923Z,93.60
2022-10-17T17:09:19.749Z,94.65
2022-10-17T17:11:46.460Z,94.62
2022-10-17T17:14:13.341Z,95.89
2022-10-17T17:16:40.088Z,96.35
2022-10-17T17:19:08.656Z,96.61
2022-10-17T17:21:35.700Z,96.80
2022-10-17T17:24:04.109Z,96.94
2022-10-17T17:26:33.853Z,96.76
2022-10-17T17:29:00.575Z,98.71
2022-10-17T17:31:30.901Z,98.79
2022-10-17T17:33:57.924Z,98.92
2022-10-17T17:36:31.449Z,98.93
2022-10-17T17:39:00.661Z,99.31
2022-10-17T17:41:28.045Z,99.42
2022-10-17T17:43:55.811Z,100.00
2022-10-17T17:46:23.976Z,100.00
2022-10-17T17:48:51.754Z,100.00
2022-10-17T17:51:21.772Z,100.00
2022-10-17T17:53:54.380Z,100.00
2022-10-17T17:56:26.868Z,100.00
2022-10-17T17:59:01.745Z,100.00
2022-10-17T18:01:31.940Z,100.00
2022-10-17T18:03:59.161Z,100.00
2022-10-17T18:06:26.899Z,100.00
2022-10-17T18:08:56.304Z,100.00
2022-10-17T18:11:22.930Z,100.00
2022-10-17T18:13:54.660Z,100.00
2022-10-17T18:16:21.329Z,100.00
2022-10-17T18:18:47.975Z,100.00
2022-10-17T18:21:14.784Z,100.00
2022-10-17T18:23:43.059Z,100.00
2022-10-17T18:26:10.212Z,100.00
2022-10-17T18:28:39.429Z,100.00
2022-10-17T18:31:07.919Z,100.00
2022-10-17T18:33:35.321Z,100.00
2022-10-17T18:36:07.063Z,100.00
2022-10-17T18:38:34.191Z,100.00
2022-10-17T18:41:09.803Z,100.00
2022-10-17T18:43:37.975Z,100.00
2022-10-17T18:46:12.423Z,100.00
2022-10-17T18:48:47.095Z,100.00
2022-10-17T18:51:15.631Z,100.00
2022-10-17T18:53:44.684Z,100.00
2022-10-17T18:56:13.540Z,100.00
2022-10-17T18:58:42.186Z,100.00
2022-10-17T19:01:15.434Z,100.00
2022-10-17T19:03:45.731Z,100.00
2022-10-17T19:06:15.932Z,100.00
2022-10-17T19:08:45.778Z,100.00
2022-10-17T19:11:17.883Z,100.00
2022-10-17T19:16:26.976Z,100.00
2022-10-17T19:19:10.180Z,100.00
2022-10-17T19:21:37.579Z,100.00
2022-10-17T19:24:06.740Z,100.00
2022-10-17T19:26:35.677Z,100.00
2022-10-17T19:29:03.037Z,100.00
2022-10-17T19:31:31.819Z,100.00
2022-10-17T19:33:59.790Z,100.00
2022-10-17T19:36:32.393Z,100.00
2022-10-17T19:39:05.448Z,100.00
2022-10-17T19:41:32.528Z,100.00
2022-10-17T19:44:00.550Z,100.00
2022-10-17T19:46:28.895Z,100.00
2022-10-17T19:48:55.972Z,100.00
2022-10-17T19:51:27.011Z,100.00
2022-10-17T19:53:55.580Z,100.00
2022-10-17T19:56:24.697Z,100.00
2022-10-17T19:58:51.620Z,100.00
2022-10-17T20:01:21.352Z,100.00
2022-10-17T20:03:48.537Z,100.00
2022-10-17T20:06:15.972Z,100.00
2022-10-17T20:08:42.805Z,100.00
2022-10-17T20:11:14.966Z,100.00
2022-10-17T20:13:42.262Z,100.00
2022-10-17T20:16:12.232Z,100.00
2022-10-17T20:18:40.850Z,100.00
2022-10-17T20:21:13.919Z,100.00
2022-10-17T20:23:41.489Z,100.00
2022-10-17T20:26:33.191Z,100.00
2022-10-17T20:29:01.718Z,100.00
2022-10-17T20:31:28.779Z,100.00
2022-10-17T20:33:59.979Z,100.00
2022-10-17T20:36:26.939Z,100.00
2022-10-17T20:38:57.859Z,100.00
2022-10-17T20:41:26.255Z,100.00
2022-10-17T20:43:54.453Z,100.00
2022-10-17T20:46:35.925Z,100.00
2022-10-17T20:49:04.508Z,100.00
2022-10-17T20:51:31.161Z,100.00
2022-10-17T20:53:57.925Z,100.00
2022-10-17T20:56:29.932Z,100.00
2022-10-17T20:58:59.068Z,100.00
2022-10-17T21:01:26.750Z,100.00
2022-10-17T21:03:53.973Z,100.00
2022-10-17T21:06:21.719Z,100.00
2022-10-17T21:08:49.258Z,100.00
2022-10-17T21:11:18.489Z,100.00
2022-10-17T21:13:45.991Z,100.00
2022-10-17T21:16:15.554Z,100.00
2022-10-17T21:18:42.724Z,100.00
2022-10-17T21:21:21.240Z,100.00
2022-10-17T21:23:50.168Z,100.00
2022-10-17T21:26:18.010Z,100.00
2022-10-17T21:28:46.018Z,100.00
2022-10-17T21:31:21.110Z,100.00
2022-10-17T21:33:59.066Z,100.00
2022-10-17T21:36:26.846Z,100.00
2022-10-17T21:38:55.001Z,100.00
2022-10-17T21:41:24.328Z,100.00
2022-10-17T21:43:58.860Z,100.00
2022-10-17T21:46:26.394Z,100.00
2022-10-17T21:48:53.400Z,100.00
2022-10-17T21:51:25.353Z,100.00
2022-10-17T21:53:53.983Z,100.00
2022-10-17T21:56:22.955Z,100.00
2022-10-17T21:58:50.987Z,100.00
2022-10-17T22:01:23.466Z,100.00
2022-10-17T22:03:52.764Z,100.00
2022-10-17T22:09:14.255Z,100.00
2022-10-17T22:11:41.889Z,100.00
2022-10-17T22:14:15.587Z,100.00
2022-10-17T22:16:45.028Z,100.00
2022-10-17T22:19:13.019Z,100.00
2022-10-17T22:21:40.045Z,100.00
2022-10-17T22:24:08.689Z,100.00
2022-10-17T22:26:37.428Z,100.00
2022-10-17T22:29:06.175Z,100.00
2022-10-17T22:31:32.822Z,100.00
2022-10-17T22:33:59.661Z,100.00
2022-10-17T22:36:26.837Z,100.00
2022-10-17T22:38:53.596Z,100.00
2022-10-17T22:41:20.629Z,100.00
2022-10-17T22:43:47.299Z,100.00
2022-10-17T22:46:16.671Z,100.00
2022-10-17T22:48:43.751Z,100.00
2022-10-17T22:51:10.903Z,100.00
2022-10-17T22:53:37.940Z,100.00
2022-10-17T22:56:13.968Z,100.00
2022-10-17T22:58:40.705Z,100.00
2022-10-17T23:01:10.026Z,100.00
2022-10-17T23:03:36.788Z,100.00
2022-10-17T23:06:03.991Z,100.00
2022-10-17T23:08:31.248Z,100.00
2022-10-17T23:10:58.216Z,100.00
2022-10-17T23:13:25.088Z,100.00
2022-10-17T23:15:56.490Z,100.00
2022-10-17T23:18:24.911Z,100.00
2022-10-17T23:20:52.494Z,100.00
2022-10-17T23:23:19.539Z,100.00
2022-10-17T23:25:46.683Z,100.00
2022-10-17T23:28:14.093Z,100.00
2022-10-17T23:30:41.077Z,100.00
2022-10-17T23:33:09.553Z,100.00
2022-10-17T23:35:36.160Z,100.00
2022-10-17T23:38:03.639Z,100.00
2022-10-17T23:40:30.610Z,100.00
2022-10-17T23:42:57.190Z,100.00
2022-10-17T23:45:23.862Z,100.00
2022-10-17T23:47:50.483Z,100.00
2022-10-17T23:50:17.110Z,100.00
2022-10-17T23:52:43.893Z,100.00
2022-10-17T23:55:10.992Z,100.00
2022-10-17T23:57:37.602Z,100.00
